Time;durP1;ratioP1;P1;durP2;ratioP2;P2;SDS_P1;SDS_P2;PMS_P1;PMS_P2;Temp;Humidity;BMP_temperature;BMP_pressure;BME280_temperature;BME280_humidity;BME280_pressure;Samples;Min_cycle;Max_cycle;Signal;HPM_P1;HPM_P2
2023/07/07 20:26:15;;;;;;;2.95;1.60;;;23.50;30.10;;;;;;5080974;27;20626;-62
2023/07/07 20:28:50;;;;;;;1.83;1.55;;;23.40;36.50;;;;;;5066770;28;20687;-64
2023/07/07 20:31:18;;;;;;;4.43;1.80;;;23.40;31.90;;;;;;5054468;28;20269;-68
2023/07/07 20:33:47;;;;;;;2.83;1.70;;;23.30;32.70;;;;;;5043903;28;20204;-61
2023/07/07 20:36:18;;;;;;;2.17;1.77;;;23.30;32.00;;;;;;5056257;28;20249;-61
2023/07/07 20:38:47;;;;;;;1.92;1.27;;;23.30;33.60;;;;;;5060348;28;20700;-61
2023/07/07 20:41:17;;;;;;;4.78;1.63;;;23.20;32.80;;;;;;5070831;28;20203;-61
2023/07/07 20:43:44;;;;;;;2.03;1.60;;;23.10;32.30;;;;;;5069486;28;20199;-61
2023/07/07 20:46:28;;;;;;;5.72;1.77;;;23.00;33.80;;;;;;5056796;28;20226;-61
2023/07/07 20:48:55;;;;;;;5.00;1.48;;;23.00;31.80;;;;;;5055829;28;20256;-61
2023/07/07 20:51:25;;;;;;;2.45;1.60;;;23.00;33.40;;;;;;5061439;28;20214;-62
2023/07/07 20:53:52;;;;;;;4.03;1.60;;;22.90;36.20;;;;;;5067467;28;20198;-61
2023/07/07 20:56:24;;;;;;;1.75;1.58;;;22.90;34.10;;;;;;5063738;28;20210;-63
2023/07/07 20:58:51;;;;;;;2.53;1.60;;;22.80;36.20;;;;;;5068014;28;20195;-62
2023/07/07 21:01:19;;;;;;;3.10;2.00;;;22.80;35.50;;;;;;5063516;28;20187;-65
2023/07/07 21:03:48;;;;;;;1.77;1.50;;;22.70;36.10;;;;;;5059163;28;20302;-62
2023/07/07 21:06:18;;;;;;;2.85;2.08;;;22.70;34.90;;;;;;5045786;28;20645;-62
2023/07/07 21:08:46;;;;;;;1.70;1.60;;;22.60;36.70;;;;;;5043562;28;20275;-62
2023/07/07 21:11:15;;;;;;;2.58;2.00;;;22.60;36.60;;;;;;5047705;28;20753;-62
2023/07/07 21:13:43;;;;;;;2.55;2.00;;;22.60;37.20;;;;;;5046821;28;20216;-63
2023/07/07 21:16:15;;;;;;;2.22;1.60;;;22.50;37.10;;;;;;5044513;28;20266;-62
2023/07/07 21:18:42;;;;;;;2.22;1.60;;;22.50;38.00;;;;;;5034808;28;20664;-60
2023/07/07 21:21:11;;;;;;;2.28;1.65;;;22.50;37.30;;;;;;5040265;28;20183;-60
2023/07/07 21:23:39;;;;;;;8.52;1.90;;;22.40;38.80;;;;;;5037600;28;20686;-61
2023/07/07 21:26:20;;;;;;;3.75;2.00;;;22.30;37.90;;;;;;5040964;28;20315;-64
2023/07/07 21:28:48;;;;;;;6.07;2.22;;;22.30;39.70;;;;;;5040863;28;20680;-62
2023/07/07 21:31:19;;;;;;;3.00;1.73;;;22.30;38.60;;;;;;5046324;28;20196;-60
2023/07/07 21:33:48;;;;;;;1.95;1.73;;;22.20;38.70;;;;;;5035368;28;20208;-62
2023/07/07 21:36:36;;;;;;;3.03;1.42;;;22.20;39.20;;;;;;5037866;28;20200;-61
2023/07/07 21:39:26;;;;;;;1.88;1.65;;;22.20;40.30;;;;;;5028023;28;20211;-62
2023/07/07 21:41:54;;;;;;;2.20;1.75;;;22.10;39.80;;;;;;5023922;28;20197;-61
2023/07/07 21:44:25;;;;;;;6.10;2.42;;;22.10;39.90;;;;;;5033648;28;20549;-61
2023/07/07 21:46:52;;;;;;;1.77;1.60;;;22.10;40.30;;;;;;5015374;28;20196;-61
2023/07/07 21:49:19;;;;;;;3.00;1.88;;;22.00;40.90;;;;;;5028511;28;20266;-61
2023/07/07 21:51:46;;;;;;;5.28;1.98;;;22.00;40.00;;;;;;5023203;28;20200;-61
2023/07/07 21:54:13;;;;;;;2.65;1.98;;;21.90;41.50;;;;;;5027620;28;20450;-61
2023/07/07 21:56:40;;;;;;;3.40;1.83;;;21.90;42.10;;;;;;5028616;28;20196;-65
2023/07/07 21:59:15;;;;;;;2.10;1.90;;;21.90;43.00;;;;;;5028078;28;20196;-61
2023/07/07 22:01:44;;;;;;;3.45;1.88;;;21.80;43.00;;;;;;5030205;28;20192;-61
2023/07/07 22:04:12;;;;;;;2.70;1.90;;;21.80;43.20;;;;;;5028884;28;20251;-61
2023/07/07 22:06:39;;;;;;;4.38;2.00;;;21.70;43.20;;;;;;5024944;28;20194;-63
2023/07/07 22:09:15;;;;;;;4.55;2.05;;;21.60;43.80;;;;;;5025619;28;20734;-72
2023/07/07 22:11:43;;;;;;;4.32;2.00;;;21.60;43.90;;;;;;5019647;28;20581;-72
2023/07/07 22:14:10;;;;;;;3.53;1.70;;;21.50;44.30;;;;;;5035399;28;20407;-72
2023/07/07 22:16:37;;;;;;;3.78;1.65;;;21.50;44.30;;;;;;5030802;28;20672;-72
2023/07/07 22:19:05;;;;;;;2.28;1.63;;;21.50;45.20;;;;;;5025668;28;20692;-73
2023/07/07 22:21:32;;;;;;;2.72;1.83;;;21.50;44.20;;;;;;5028995;28;20274;-72
2023/07/07 22:23:59;;;;;;;5.07;1.92;;;21.40;66.20;;;;;;5018000;28;20197;-71
2023/07/07 22:26:27;;;;;;;3.78;1.80;;;21.40;45.30;;;;;;5025870;28;20224;-71
2023/07/07 22:28:54;;;;;;;2.33;1.77;;;21.40;45.30;;;;;;5028134;28;20852;-71
2023/07/07 22:31:21;;;;;;;3.67;1.85;;;21.40;45.40;;;;;;5029129;28;20246;-71
2023/07/07 22:33:48;;;;;;;1.90;1.75;;;21.40;45.40;;;;;;5028757;28;20979;-71
2023/07/07 22:36:21;;;;;;;2.85;1.70;;;21.30;46.10;;;;;;5026862;28;20212;-71
2023/07/07 22:38:48;;;;;;;2.60;1.70;;;21.30;45.70;;;;;;5027916;28;20207;-71
2023/07/07 22:41:23;;;;;;;3.13;1.75;;;21.20;47.00;;;;;;5032481;28;20200;-71
2023/07/07 22:43:50;;;;;;;2.85;1.60;;;21.20;46.50;;;;;;5028005;28;20254;-71
2023/07/07 22:46:31;;;;;;;5.05;1.65;;;21.10;46.80;;;;;;5023975;28;20244;-71
2023/07/07 22:48:59;;;;;;;4.38;2.13;;;21.00;48.70;;;;;;5017698;28;20216;-72
2023/07/07 22:51:27;;;;;;;2.83;1.88;;;21.00;47.50;;;;;;5017100;28;20207;-72
2023/07/07 22:53:54;;;;;;;3.28;1.77;;;20.90;49.30;;;;;;5025132;28;20200;-71
2023/07/07 22:56:30;;;;;;;1.85;1.60;;;20.90;49.60;;;;;;5027170;28;20339;-72
2023/07/07 22:58:59;;;;;;;2.08;1.63;;;20.80;51.20;;;;;;5021743;28;20196;-72
2023/07/07 23:01:28;;;;;;;1.95;1.75;;;20.70;51.00;;;;;;5029072;28;20180;-72
2023/07/07 23:04:05;;;;;;;2.63;1.77;;;20.80;50.60;;;;;;5024008;28;20270;-72
2023/07/07 23:06:33;;;;;;;2.53;2.00;;;20.70;51.50;;;;;;5029217;28;20211;-75
2023/07/07 23:09:21;;;;;;;2.80;2.10;;;20.70;51.90;;;;;;5019941;28;20701;-74
2023/07/07 23:11:48;;;;;;;3.63;1.55;;;20.70;51.70;;;;;;5022072;28;20188;-72
2023/07/07 23:14:15;;;;;;;2.72;1.65;;;20.60;52.60;;;;;;5028090;28;20204;-73
2023/07/07 23:16:42;;;;;;;3.50;1.73;;;20.60;53.30;;;;;;5031612;28;20184;-72
2023/07/07 23:19:12;;;;;;;4.50;2.10;;;20.60;52.50;;;;;;5021461;28;20201;-72
2023/07/07 23:21:39;;;;;;;3.13;2.22;;;20.60;54.50;;;;;;5021639;28;20726;-73
2023/07/07 23:24:06;;;;;;;2.72;2.00;;;20.40;53.70;;;;;;5023469;28;20236;-71
2023/07/07 23:26:34;;;;;;;2.53;2.05;;;20.40;54.80;;;;;;5015050;28;20229;-73
2023/07/07 23:29:01;;;;;;;2.83;2.10;;;20.40;54.20;;;;;;5024294;28;20204;-74
2023/07/07 23:31:28;;;;;;;2.67;2.10;;;20.30;55.10;;;;;;5029143;28;20211;-74
2023/07/07 23:33:55;;;;;;;3.65;2.53;;;20.20;54.70;;;;;;5026654;28;20199;-74
2023/07/07 23:36:30;;;;;;;3.90;2.58;;;20.20;55.10;;;;;;5025235;28;20196;-74
2023/07/07 23:39:00;;;;;;;3.97;2.58;;;20.20;57.60;;;;;;5030629;28;20286;-74
2023/07/07 23:41:28;;;;;;;6.20;2.38;;;20.10;56.50;;;;;;5030208;28;20199;-74
2023/07/07 23:43:55;;;;;;;6.90;2.45;;;20.20;57.50;;;;;;5028248;28;20196;-74
2023/07/07 23:46:23;;;;;;;3.60;2.15;;;20.20;57.00;;;;;;5018763;28;20251;-74
2023/07/07 23:48:50;;;;;;;3.20;2.33;;;20.20;58.20;;;;;;5023233;28;20189;-73
2023/07/07 23:51:17;;;;;;;3.30;2.70;;;20.20;57.40;;;;;;5025449;28;20215;-73
2023/07/07 23:53:46;;;;;;;2.63;2.20;;;20.20;58.00;;;;;;5025705;28;20266;-73
2023/07/07 23:56:21;;;;;;;4.63;2.50;;;20.10;59.00;;;;;;5025834;28;20258;-74
2023/07/07 23:58:49;;;;;;;8.90;5.97;;;20.10;58.10;;;;;;5021820;28;20355;-73
